GMMC/CAS METAR and TAF weather

Enter ICAO airport designator
Station Type Date Time Source
GMMC METAR 2019/12/14 06:00 UTC NOAA

GMMC 140600Z 16002KT 9999 BKN016 SCT026 15/14 Q1023


Station Type Date Time Source
GMMC Decoded METAR 2019/12/14 06:00 UTC NOAA

Casablanca, Morocco (GMMC) 33-34N 007-40W 62M
Dec 14, 2019 - 01:00 AM EST / 2019.12.14 0600 UTC
Wind: from the SSE (160 degrees) at 2 MPH (2 KT):0
Visibility: greater than 7 mile(s):0
Sky conditions: mostly cloudy
Temperature: 59 F (15 C)
Dew Point: 57 F (14 C)
Relative Humidity: 93%
Pressure (altimeter): 30.21 in. Hg (1023 hPa)
ob: GMMC 140600Z 16002KT 9999 BKN016 SCT026 15/14 Q1023
cycle: 6

Station Type Date Time Source
GMMC TAF 2016/05/22 17:00 UTC NOAA

FTMC31 GMMC 221700 RRA TAF LPPT 221700Z 2218/2324 34013KT CAVOK
BECMG 2221/2224 34007KT
BECMG 2310/2312 VRB03KT

Example: see airport list